Item Display Status Serial CT Sensor

Mooring Depth: 1 m

 

Deployed Sensor

  • Serial Number: 8774
  • NDBC Property Number: 35137
  • Start Date: 11/19/2018 (14:39:24 Z)
  • End Date: Currently Active
Water Temperature [°C]     6 entries per hour
Showing data from 11/19/2019 (16:00:00 Z) to 11/18/2019 (00:00:01 Z)
Previous Next [ Day | 3-Days | 7-Days ]
First Last
Prev [ Day | 3-Days | 7-Days ] Next
First Last

Start Time:     :
End Time:     :     
Time (in GMT) :00 :50 :40 :30 :20 :10
Previous Next [ Day | 3-Days | 7-Days ]
First Last
Prev [ Day | 3-Days | 7-Days ] Next
First Last


123 => good data
MM => data is determined as missing
-- => data not received/configured
Back to Top Back to Top
11/19/2019 16:00 to 15:10 24.829 24.828 24.834 24.828 24.811 24.830
11/19/2019 15:00 to 14:10 24.839 24.839 24.833 24.836 24.824 24.815
11/19/2019 14:00 to 13:10 24.806 24.805 24.776 24.800 24.798 24.810
11/19/2019 13:00 to 12:10 24.802 24.812 24.814 24.829 24.825 24.834
11/19/2019 12:00 to 11:10 24.835 24.835 24.821 24.823 24.824 24.822
11/19/2019 11:00 to 10:10 24.839 24.841 24.845 24.843 24.825 24.851
11/19/2019 10:00 to 9:10 24.848 24.830 24.846 24.836 24.829 24.823
11/19/2019 09:00 to 8:10 24.836 24.830 24.838 24.832 24.832 24.828
11/19/2019 08:00 to 7:10 24.826 24.826 24.823 24.826 24.820 24.820
11/19/2019 07:00 to 6:10 24.823 24.827 24.824 24.820 24.827 24.831
11/19/2019 06:00 to 5:10 24.820 24.804 24.807 24.805 24.804 24.807
11/19/2019 05:00 to 4:10 24.809 24.808 24.802 24.799 24.811 24.794
11/19/2019 04:00 to 3:10 24.814 24.813 24.818 24.825 24.825 24.826
11/19/2019 03:00 to 2:10 24.825 24.823 24.825 24.830 24.827 24.813
11/19/2019 02:00 to 1:10 24.816 24.809 24.809 24.797 24.798 24.784
11/19/2019 01:00 to 0:10 24.781 24.793 24.797 24.796 24.792 24.799
11/19/2019 00:00 to 23:10 24.797 24.794 24.784 24.764 24.774 24.771
11/18/2019 23:00 to 22:10 24.778 24.771 24.771 24.764 24.766 24.757
11/18/2019 22:00 to 21:10 24.759 24.753 24.741 24.741 24.736 24.731
11/18/2019 21:00 to 20:10 24.726 24.720 24.703 24.704 24.696 24.710
11/18/2019 20:00 to 19:10 24.717 24.706 24.669 24.673 24.668 24.663
11/18/2019 19:00 to 18:10 24.649 24.648 24.638 24.636 24.642 24.638
11/18/2019 18:00 to 17:10 24.633 24.638 24.645 24.639 24.637 24.628
11/18/2019 17:00 to 16:10 24.636 24.635 24.630 24.614 24.614 24.594
11/18/2019 16:00 to 15:10 24.603 24.619 24.618 24.620 24.612 24.612
11/18/2019 15:00 to 14:10 24.609 24.606 24.600 24.603 24.599 24.594
11/18/2019 14:00 to 13:10 24.581 24.583 24.576 24.567 24.568 24.585
11/18/2019 13:00 to 12:10 24.576 24.585 24.583 24.608 24.590 24.594
11/18/2019 12:00 to 11:10 24.584 24.589 24.588 24.587 24.552 24.570
11/18/2019 11:00 to 10:10 24.549 24.564 24.548 24.565 24.562 24.558
11/18/2019 10:00 to 9:10 24.555 24.548 24.537 24.533 24.546 24.541
11/18/2019 09:00 to 8:10 24.559 24.564 24.553 24.561 24.559 24.577
11/18/2019 08:00 to 7:10 24.559 24.567 24.578 24.582 24.592 24.584
11/18/2019 07:00 to 6:10 24.582 24.586 24.594 24.600 24.592 24.606
11/18/2019 06:00 to 5:10 24.621 24.637 24.631 24.633 24.624 24.645
11/18/2019 05:00 to 4:10 24.647 24.658 24.654 24.666 24.672 24.675
11/18/2019 04:00 to 3:10 24.677 24.693 24.706 24.713 24.729 24.741
11/18/2019 03:00 to 2:10 24.750 24.757 24.767 24.784 24.791 24.788
11/18/2019 02:00 to 1:10 24.786 24.773 24.773 24.768 24.747 24.763
11/18/2019 01:00 to 0:10 24.758 24.797 24.794 24.798 24.817 24.827

 

 

 

Conductivity [S/m]     6 entries per hour
Showing data from 11/19/2019 (16:00:00 Z) to 11/18/2019 (00:00:01 Z)
Previous Next [ Day | 3-Days | 7-Days ]
First Last
Prev [ Day | 3-Days | 7-Days ] Next
First Last

Start Time:     :
End Time:     :     
Time (in GMT) :00 :50 :40 :30 :20 :10
Previous Next [ Day | 3-Days | 7-Days ]
First Last
Prev [ Day | 3-Days | 7-Days ] Next
First Last


123 => good data
MM => data is determined as missing
-- => data not received/configured
Back to Top Back to Top
11/19/2019 16:00 to 15:10 5.10515 5.10474 5.10541 5.10456 5.10180 5.10421
11/19/2019 15:00 to 14:10 5.10519 5.10514 5.10438 5.10458 5.10348 5.10304
11/19/2019 14:00 to 13:10 5.10133 5.10166 5.09908 5.10151 5.10123 5.10226
11/19/2019 13:00 to 12:10 5.10185 5.10236 5.10298 5.10407 5.10363 5.10469
11/19/2019 12:00 to 11:10 5.10451 5.10469 5.10351 5.10374 5.10369 5.10356
11/19/2019 11:00 to 10:10 5.10529 5.10485 5.10561 5.10525 5.10372 5.10613
11/19/2019 10:00 to 9:10 5.10609 5.10488 5.10562 5.10533 5.10461 5.10459
11/19/2019 09:00 to 8:10 5.10552 5.10551 5.10585 5.10523 5.10524 5.10439
11/19/2019 08:00 to 7:10 5.10479 5.10400 5.10411 5.10416 5.10351 5.10367
11/19/2019 07:00 to 6:10 5.10344 5.10366 5.10338 5.10321 5.10350 5.10343
11/19/2019 06:00 to 5:10 5.10212 5.10104 5.10167 5.10114 5.10097 5.10141
11/19/2019 05:00 to 4:10 5.10126 5.10106 5.10100 5.10059 5.10196 5.10069
11/19/2019 04:00 to 3:10 5.10245 5.10248 5.10284 5.10367 5.10346 5.10343
11/19/2019 03:00 to 2:10 5.10358 5.10333 5.10373 5.10396 5.10347 5.10245
11/19/2019 02:00 to 1:10 5.10271 5.10195 5.10168 5.10034 5.10075 5.09969
11/19/2019 01:00 to 0:10 5.09949 5.10012 5.10029 5.10026 5.09985 5.10029
11/19/2019 00:00 to 23:10 5.09974 5.09929 5.09865 5.09758 5.09819 5.09773
11/18/2019 23:00 to 22:10 5.09798 5.09778 5.09761 5.09659 5.09689 5.09666
11/18/2019 22:00 to 21:10 5.09736 5.09686 5.09555 5.09557 5.09533 5.09494
11/18/2019 21:00 to 20:10 5.09441 5.09433 5.09371 5.09349 5.09313 5.09450
11/18/2019 20:00 to 19:10 5.09471 5.09378 5.09158 5.09172 5.09104 5.09040
11/18/2019 19:00 to 18:10 5.08925 5.08908 5.08870 5.08800 5.08836 5.08784
11/18/2019 18:00 to 17:10 5.08725 5.08752 5.08766 5.08723 5.08784 5.08746
11/18/2019 17:00 to 16:10 5.08722 5.08707 5.08636 5.08691 5.08569 5.08439
11/18/2019 16:00 to 15:10 5.08593 5.08665 5.08693 5.08682 5.08592 5.08546
11/18/2019 15:00 to 14:10 5.08571 5.08535 5.08479 5.08526 5.08462 5.08469
11/18/2019 14:00 to 13:10 5.08353 5.08320 5.08239 5.08212 5.08139 5.08338
11/18/2019 13:00 to 12:10 5.08258 5.08285 5.08275 5.08468 5.08290 5.08327
11/18/2019 12:00 to 11:10 5.08162 5.08255 5.08231 5.08214 5.07983 5.08194
11/18/2019 11:00 to 10:10 5.08014 5.08125 5.07985 5.08139 5.08112 5.08081
11/18/2019 10:00 to 9:10 5.08000 5.08017 5.07916 5.08020 5.08035 5.08160
11/18/2019 09:00 to 8:10 5.08232 5.08278 5.08196 5.08218 5.08188 5.08382
11/18/2019 08:00 to 7:10 5.08131 5.08338 5.08279 5.08350 5.08382 5.08413
11/18/2019 07:00 to 6:10 5.08408 5.08371 5.08435 5.08447 5.08433 5.08637
11/18/2019 06:00 to 5:10 5.08636 5.08777 5.08705 5.08754 5.08707 5.08826
11/18/2019 05:00 to 4:10 5.08856 5.08879 5.08825 5.08949 5.09006 5.09034
11/18/2019 04:00 to 3:10 5.09051 5.09149 5.09261 5.09322 5.09520 5.09548
11/18/2019 03:00 to 2:10 5.09632 5.09655 5.09706 5.09826 5.09909 5.09875
11/18/2019 02:00 to 1:10 5.09824 5.09708 5.09765 5.09704 5.09501 5.09641
11/18/2019 01:00 to 0:10 5.09599 5.09931 5.09927 5.09915 5.10062 5.10087

 

 

 

Salinity [psu]     6 entries per hour
Showing data from 11/19/2019 (16:00:00 Z) to 11/18/2019 (00:00:01 Z)
Previous Next [ Day | 3-Days | 7-Days ]
First Last
Prev [ Day | 3-Days | 7-Days ] Next
First Last

Start Time:     :
End Time:     :     
Time (in GMT) :00 :50 :40 :30 :20 :10
Previous Next [ Day | 3-Days | 7-Days ]
First Last
Prev [ Day | 3-Days | 7-Days ] Next
First Last


123 => good data
MM => data is determined as missing
-- => data not received/configured
Back to Top Back to Top
11/19/2019 16:00 to 15:10 33.63 33.63 33.63 33.63 33.62 33.63
11/19/2019 15:00 to 14:10 33.63 33.63 33.63 33.62 33.62 33.63
11/19/2019 14:00 to 13:10 33.62 33.63 33.63 33.63 33.63 33.63
11/19/2019 13:00 to 12:10 33.63 33.63 33.63 33.63 33.63 33.63
11/19/2019 12:00 to 11:10 33.62 33.63 33.63 33.63 33.63 33.63
11/19/2019 11:00 to 10:10 33.63 33.62 33.63 33.62 33.63 33.62
11/19/2019 10:00 to 9:10 33.63 33.63 33.62 33.63 33.63 33.63
11/19/2019 09:00 to 8:10 33.63 33.64 33.63 33.63 33.63 33.63
11/19/2019 08:00 to 7:10 33.63 33.63 33.63 33.63 33.63 33.63
11/19/2019 07:00 to 6:10 33.63 33.62 33.62 33.63 33.62 33.62
11/19/2019 06:00 to 5:10 33.62 33.62 33.62 33.62 33.62 33.62
11/19/2019 05:00 to 4:10 33.62 33.62 33.62 33.62 33.62 33.63
11/19/2019 04:00 to 3:10 33.62 33.63 33.62 33.63 33.62 33.62
11/19/2019 03:00 to 2:10 33.62 33.62 33.63 33.62 33.62 33.63
11/19/2019 02:00 to 1:10 33.63 33.63 33.62 33.62 33.62 33.63
11/19/2019 01:00 to 0:10 33.63 33.62 33.62 33.62 33.62 33.62
11/19/2019 00:00 to 23:10 33.62 33.62 33.62 33.63 33.62 33.62
11/18/2019 23:00 to 22:10 33.62 33.62 33.62 33.62 33.62 33.62
11/18/2019 22:00 to 21:10 33.63 33.63 33.63 33.63 33.63 33.63
11/18/2019 21:00 to 20:10 33.63 33.63 33.64 33.64 33.64 33.64
11/18/2019 20:00 to 19:10 33.64 33.64 33.65 33.65 33.65 33.65
11/18/2019 19:00 to 18:10 33.65 33.65 33.65 33.65 33.65 33.65
11/18/2019 18:00 to 17:10 33.65 33.65 33.64 33.64 33.65 33.65
11/18/2019 17:00 to 16:10 33.64 33.64 33.64 33.66 33.65 33.65
11/18/2019 16:00 to 15:10 33.66 33.65 33.66 33.65 33.65 33.65
11/18/2019 15:00 to 14:10 33.65 33.65 33.65 33.66 33.65 33.66
11/18/2019 14:00 to 13:10 33.66 33.65 33.65 33.66 33.65 33.65
11/18/2019 13:00 to 12:10 33.66 33.65 33.65 33.65 33.65 33.65
11/18/2019 12:00 to 11:10 33.64 33.64 33.64 33.64 33.65 33.66
11/18/2019 11:00 to 10:10 33.66 33.65 33.66 33.65 33.65 33.66
11/18/2019 10:00 to 9:10 33.65 33.66 33.66 33.67 33.66 33.67
11/18/2019 09:00 to 8:10 33.67 33.67 33.67 33.66 33.66 33.66
11/18/2019 08:00 to 7:10 33.66 33.67 33.66 33.66 33.65 33.66
11/18/2019 07:00 to 6:10 33.66 33.66 33.65 33.65 33.66 33.66
11/18/2019 06:00 to 5:10 33.65 33.65 33.65 33.65 33.65 33.65
11/18/2019 05:00 to 4:10 33.65 33.64 33.64 33.64 33.64 33.64
11/18/2019 04:00 to 3:10 33.64 33.63 33.63 33.63 33.63 33.63
11/18/2019 03:00 to 2:10 33.63 33.62 33.62 33.62 33.62 33.62
11/18/2019 02:00 to 1:10 33.61 33.62 33.62 33.62 33.62 33.62
11/18/2019 01:00 to 0:10 33.62 33.61 33.62 33.61 33.61 33.60